createdAt,value
2019-02-19T00:00:57.597Z,13.30
2019-02-19T00:01:57.870Z,13.30
2019-02-19T00:02:57.577Z,13.29
2019-02-19T00:03:57.561Z,13.33
2019-02-19T00:04:57.552Z,13.17
2019-02-19T00:05:57.543Z,13.03
2019-02-19T00:06:57.628Z,12.95
2019-02-19T00:07:57.528Z,12.74
2019-02-19T00:08:57.515Z,12.75
2019-02-19T00:09:57.497Z,12.89
2019-02-19T00:10:57.483Z,13.12
2019-02-19T00:11:57.472Z,13.30
2019-02-19T00:12:57.472Z,13.30
2019-02-19T00:13:57.556Z,13.24
2019-02-19T00:14:57.442Z,13.22
2019-02-19T00:15:57.432Z,13.06
2019-02-19T00:16:57.422Z,12.97
2019-02-19T00:17:57.411Z,13.03
2019-02-19T00:18:57.403Z,12.69
2019-02-19T00:19:57.388Z,12.20
2019-02-19T00:20:57.382Z,12.19
2019-02-19T00:21:57.366Z,12.14
2019-02-19T00:22:57.353Z,11.98
2019-02-19T00:23:57.345Z,11.80
2019-02-19T00:24:57.338Z,11.83
2019-02-19T00:25:57.327Z,11.75
2019-02-19T00:26:57.318Z,11.50
2019-02-19T00:27:57.301Z,11.46
2019-02-19T00:28:57.289Z,11.36
2019-02-19T00:29:57.284Z,11.21
2019-02-19T00:30:57.266Z,10.97
2019-02-19T00:31:57.262Z,10.57
2019-02-19T00:32:57.246Z,9.82
2019-02-19T00:33:57.240Z,9.12
2019-02-19T00:34:57.224Z,8.57
2019-02-19T00:35:57.210Z,7.98
2019-02-19T00:36:57.209Z,7.66
2019-02-19T00:37:57.190Z,7.52
2019-02-19T00:38:57.188Z,7.55
2019-02-19T00:39:57.171Z,7.98
2019-02-19T00:40:57.160Z,8.25
2019-02-19T00:41:57.149Z,8.48
2019-02-19T00:42:57.138Z,8.79
2019-02-19T00:43:57.133Z,9.11
2019-02-19T00:44:57.120Z,9.39
2019-02-19T00:45:57.109Z,9.74
2019-02-19T00:46:57.095Z,10.19
2019-02-19T00:47:57.086Z,10.62
2019-02-19T00:48:57.072Z,10.97
2019-02-19T00:49:57.063Z,11.50
2019-02-19T00:50:57.056Z,11.78
2019-02-19T00:51:57.045Z,11.96
2019-02-19T00:52:57.026Z,12.22
2019-02-19T00:53:57.014Z,12.26
2019-02-19T00:54:57.042Z,12.33
2019-02-19T00:55:56.994Z,12.40
2019-02-19T00:56:56.984Z,12.29
2019-02-19T00:57:56.981Z,12.30
2019-02-19T00:58:56.963Z,11.89
2019-02-19T00:59:56.958Z,11.90
2019-02-19T01:00:56.940Z,11.83
2019-02-19T01:01:56.927Z,11.82
2019-02-19T01:02:56.923Z,11.89
2019-02-19T01:03:56.908Z,11.89
2019-02-19T01:04:56.901Z,12.00
2019-02-19T01:05:56.890Z,12.14
2019-02-19T01:06:56.875Z,12.38
2019-02-19T01:07:56.872Z,12.53
2019-02-19T01:08:56.962Z,12.48
2019-02-19T01:09:56.847Z,12.47
2019-02-19T01:10:56.834Z,12.74
2019-02-19T01:11:56.821Z,12.88
2019-02-19T01:12:56.815Z,12.92
2019-02-19T01:13:56.800Z,13.07
2019-02-19T01:14:56.898Z,13.20
2019-02-19T01:15:56.778Z,13.36
2019-02-19T01:16:56.774Z,13.46
2019-02-19T01:17:56.865Z,13.54
2019-02-19T01:18:56.748Z,13.46
2019-02-19T01:19:56.734Z,13.37
2019-02-19T01:20:56.724Z,13.35
2019-02-19T01:21:56.714Z,13.39
2019-02-19T01:22:56.704Z,13.36
2019-02-19T01:23:56.693Z,13.43
2019-02-19T01:24:56.681Z,13.36
2019-02-19T01:25:56.668Z,13.36
2019-02-19T01:26:56.658Z,13.43
2019-02-19T01:27:56.650Z,13.57
2019-02-19T01:28:58.334Z,13.53
2019-02-19T01:29:56.625Z,13.51
2019-02-19T01:30:56.617Z,13.50
2019-02-19T01:31:56.610Z,13.50
2019-02-19T01:32:56.595Z,13.40
2019-02-19T01:33:56.588Z,13.27
2019-02-19T01:34:56.573Z,13.29
2019-02-19T01:35:56.565Z,13.32
2019-02-19T01:36:56.549Z,13.09
2019-02-19T01:37:56.543Z,13.03
2019-02-19T01:38:56.530Z,12.89
2019-02-19T01:39:56.520Z,12.38
2019-02-19T01:40:56.508Z,11.02
2019-02-19T01:41:56.493Z,9.88
2019-02-19T01:42:56.485Z,8.94
2019-02-19T01:43:56.472Z,8.07
2019-02-19T01:44:56.465Z,8.72
2019-02-19T01:45:56.453Z,9.37
2019-02-19T01:46:56.445Z,9.69
2019-02-19T01:47:56.434Z,10.21
2019-02-19T01:48:56.423Z,10.62
2019-02-19T01:49:56.411Z,10.90
2019-02-19T01:50:56.399Z,11.67
2019-02-19T01:51:56.388Z,12.15
2019-02-19T01:52:56.375Z,12.45
2019-02-19T01:53:56.368Z,12.75
2019-02-19T01:54:56.361Z,12.89
2019-02-19T01:55:56.349Z,13.03
2019-02-19T01:56:56.338Z,13.24
2019-02-19T01:57:56.325Z,13.25
2019-02-19T01:58:56.314Z,13.30
2019-02-19T01:59:56.305Z,13.33
2019-02-19T02:00:56.293Z,13.25
2019-02-19T02:01:56.282Z,13.30
2019-02-19T02:02:56.279Z,13.53
2019-02-19T02:03:56.258Z,13.61
2019-02-19T02:04:56.247Z,13.69
2019-02-19T02:05:56.237Z,13.62
2019-02-19T02:06:56.224Z,13.58
2019-02-19T02:07:56.213Z,13.17
2019-02-19T02:08:56.206Z,12.71
2019-02-19T02:09:56.292Z,12.36
2019-02-19T02:10:56.183Z,12.00
2019-02-19T02:11:56.169Z,11.83
2019-02-19T02:12:56.161Z,11.87
2019-02-19T02:13:56.150Z,11.75
2019-02-19T02:14:56.140Z,11.89
2019-02-19T02:15:56.127Z,11.83
2019-02-19T02:16:56.120Z,11.82
2019-02-19T02:17:56.104Z,11.82
2019-02-19T02:18:56.095Z,11.82
2019-02-19T02:19:56.084Z,11.87
2019-02-19T02:20:56.077Z,12.25
2019-02-19T02:21:56.061Z,12.70
2019-02-19T02:22:56.050Z,12.99
2019-02-19T02:23:56.039Z,13.35
2019-02-19T02:24:56.032Z,13.64
2019-02-19T02:25:56.021Z,13.76
2019-02-19T02:26:56.005Z,14.00
2019-02-19T02:27:55.997Z,14.24
2019-02-19T02:28:55.986Z,14.54
2019-02-19T02:29:55.974Z,14.80
2019-02-19T02:30:55.963Z,14.87
2019-02-19T02:31:55.956Z,14.93
2019-02-19T02:32:55.946Z,15.10
2019-02-19T02:33:55.933Z,15.10
2019-02-19T02:34:55.926Z,14.82
2019-02-19T02:35:56.010Z,14.71
2019-02-19T02:36:55.899Z,14.71
2019-02-19T02:37:55.888Z,14.85
2019-02-19T02:38:55.979Z,15.26
2019-02-19T02:39:55.878Z,15.64
2019-02-19T02:40:55.860Z,15.67
2019-02-19T02:41:55.852Z,15.72
2019-02-19T02:42:55.842Z,15.64
2019-02-19T02:43:55.832Z,15.78
2019-02-19T02:44:55.817Z,15.85
2019-02-19T02:45:55.805Z,16.09
2019-02-19T02:46:55.833Z,16.19
2019-02-19T02:47:55.784Z,16.47
2019-02-19T02:48:55.776Z,16.69
2019-02-19T02:49:55.773Z,16.93
2019-02-19T02:50:55.760Z,17.17
2019-02-19T02:51:55.742Z,17.40
2019-02-19T02:52:55.731Z,17.63
2019-02-19T02:53:55.728Z,17.81
2019-02-19T02:54:55.706Z,17.93
2019-02-19T02:55:55.697Z,18.09
2019-02-19T02:56:55.683Z,18.24
2019-02-19T02:57:55.671Z,18.47
2019-02-19T02:58:55.664Z,18.55
2019-02-19T02:59:55.651Z,18.46
2019-02-19T03:00:55.642Z,18.06
2019-02-19T03:01:55.638Z,17.88
2019-02-19T03:02:55.622Z,17.43
2019-02-19T03:03:55.613Z,17.10
2019-02-19T03:04:55.599Z,16.87
2019-02-19T03:05:55.687Z,16.61
2019-02-19T03:06:55.572Z,16.52
2019-02-19T03:07:55.568Z,16.49
2019-02-19T03:08:55.553Z,16.33
2019-02-19T03:09:55.544Z,16.26
2019-02-19T03:10:55.628Z,16.25
2019-02-19T03:11:55.532Z,16.15
2019-02-19T03:12:55.506Z,16.12
2019-02-19T03:13:55.504Z,16.09
2019-02-19T03:14:55.495Z,16.01
2019-02-19T03:16:02.284Z,16.04
2019-02-19T03:16:56.578Z,16.01
2019-02-19T03:17:55.458Z,15.97
2019-02-19T03:18:55.445Z,15.96
2019-02-19T03:19:55.431Z,15.88
2019-02-19T03:20:55.422Z,15.84
2019-02-19T03:21:55.407Z,15.78
2019-02-19T03:22:55.405Z,15.67
2019-02-19T03:23:55.386Z,15.64
2019-02-19T03:24:55.380Z,15.57
2019-02-19T03:25:55.369Z,15.56
2019-02-19T03:26:55.361Z,15.61
2019-02-19T03:27:55.346Z,15.60
2019-02-19T03:28:55.338Z,15.68
2019-02-19T03:29:55.325Z,15.70
2019-02-19T03:30:55.326Z,15.70
2019-02-19T03:31:55.303Z,15.52
2019-02-19T03:32:55.295Z,15.66
2019-02-19T03:33:55.279Z,15.54
2019-02-19T03:34:55.267Z,15.60
2019-02-19T03:35:55.257Z,15.51
2019-02-19T03:36:55.244Z,15.45
2019-02-19T03:37:55.239Z,15.70
2019-02-19T03:38:55.229Z,15.64
2019-02-19T03:39:55.213Z,15.74
2019-02-19T03:40:55.201Z,15.74
2019-02-19T03:41:55.189Z,15.66
2019-02-19T03:42:55.183Z,15.78
2019-02-19T03:43:55.173Z,15.86
2019-02-19T03:44:55.159Z,15.84
2019-02-19T03:45:55.146Z,15.93
2019-02-19T03:46:55.132Z,15.93
2019-02-19T03:47:55.130Z,16.33
2019-02-19T03:48:55.118Z,16.37
2019-02-19T03:49:55.109Z,16.40
2019-02-19T03:50:55.097Z,16.37
2019-02-19T03:51:55.084Z,16.44
2019-02-19T03:52:55.071Z,16.70
2019-02-19T03:53:55.061Z,16.88
2019-02-19T03:54:55.063Z,16.98
2019-02-19T03:55:55.043Z,17.11
2019-02-19T03:56:55.029Z,16.92
2019-02-19T03:57:55.018Z,16.87
2019-02-19T03:58:55.012Z,16.82
2019-02-19T03:59:54.997Z,16.70
2019-02-19T04:00:54.986Z,16.70
2019-02-19T04:01:54.976Z,16.95
2019-02-19T04:02:54.967Z,17.06
2019-02-19T04:03:54.953Z,17.47
2019-02-19T04:04:54.951Z,17.78
2019-02-19T04:05:54.933Z,18.06
2019-02-19T04:06:55.477Z,18.36
2019-02-19T04:07:54.911Z,18.14
2019-02-19T04:08:54.903Z,17.98
2019-02-19T04:09:54.901Z,18.39
2019-02-19T04:10:54.880Z,19.02
2019-02-19T04:11:54.869Z,19.45
2019-02-19T04:12:54.859Z,19.56
2019-02-19T04:13:54.848Z,19.80
2019-02-19T04:14:54.840Z,20.20
2019-02-19T04:15:54.827Z,19.83
2019-02-19T04:16:54.821Z,19.75
2019-02-19T04:17:54.810Z,20.15
2019-02-19T04:18:54.801Z,20.52
2019-02-19T04:19:54.788Z,20.28
2019-02-19T04:20:54.778Z,20.34
2019-02-19T04:21:54.766Z,20.38
2019-02-19T04:22:54.757Z,20.39
2019-02-19T04:23:54.747Z,20.75
2019-02-19T04:24:54.732Z,20.98
2019-02-19T04:25:54.724Z,21.13
2019-02-19T04:26:54.760Z,21.17
2019-02-19T04:27:54.703Z,21.42
2019-02-19T04:28:54.691Z,21.60
2019-02-19T04:29:54.693Z,21.35
2019-02-19T04:30:54.671Z,20.34
2019-02-19T04:31:54.665Z,19.76
2019-02-19T04:32:54.648Z,19.38
2019-02-19T04:33:54.648Z,19.13
2019-02-19T04:34:54.639Z,18.80
2019-02-19T04:35:54.618Z,18.72
2019-02-19T04:36:54.615Z,18.72
2019-02-19T04:37:54.599Z,18.54
2019-02-19T04:38:54.586Z,18.62
2019-02-19T04:39:54.586Z,19.05
2019-02-19T04:40:54.563Z,19.41
2019-02-19T04:41:54.553Z,20.06
2019-02-19T04:42:54.543Z,19.54
2019-02-19T04:43:54.533Z,19.24
2019-02-19T04:44:54.521Z,19.30
2019-02-19T04:45:54.509Z,18.99
2019-02-19T04:46:54.499Z,19.23
2019-02-19T04:47:54.500Z,19.88
2019-02-19T04:48:54.477Z,20.25
2019-02-19T04:49:54.471Z,20.39
2019-02-19T04:50:54.463Z,20.58
2019-02-19T04:51:54.446Z,20.49
2019-02-19T04:52:54.442Z,20.55
2019-02-19T04:53:54.424Z,20.83
2019-02-19T04:54:54.417Z,20.82
2019-02-19T04:55:54.397Z,20.41
2019-02-19T04:56:54.391Z,19.88
2019-02-19T04:57:54.387Z,19.95
2019-02-19T04:58:54.364Z,20.10
2019-02-19T04:59:54.354Z,20.12
2019-02-19T05:00:54.342Z,19.56
2019-02-19T05:01:54.334Z,19.42
2019-02-19T05:02:54.322Z,19.27
2019-02-19T05:03:54.309Z,19.01
2019-02-19T05:04:54.299Z,18.92
2019-02-19T05:05:54.288Z,18.91
2019-02-19T05:06:54.289Z,19.32
2019-02-19T05:07:54.367Z,19.88
2019-02-19T05:08:54.252Z,20.12
2019-02-19T05:09:54.244Z,20.13
2019-02-19T05:10:54.233Z,20.09
2019-02-19T05:11:54.226Z,19.39
2019-02-19T05:12:54.214Z,19.12
2019-02-19T05:13:54.198Z,19.02
2019-02-19T05:14:54.192Z,18.80
2019-02-19T05:15:54.180Z,18.68
2019-02-19T05:16:54.163Z,18.49
2019-02-19T05:17:54.159Z,18.43
2019-02-19T05:18:54.147Z,18.16
2019-02-19T05:19:54.170Z,18.03
2019-02-19T05:20:54.129Z,17.96
2019-02-19T05:21:54.113Z,17.87
2019-02-19T05:22:54.118Z,17.86
2019-02-19T05:23:54.093Z,17.96
2019-02-19T05:24:54.078Z,17.96
2019-02-19T05:25:54.072Z,17.99
2019-02-19T05:26:54.062Z,18.03
2019-02-19T05:27:54.050Z,18.02
2019-02-19T05:28:54.042Z,17.93
2019-02-19T05:29:54.028Z,17.90
2019-02-19T05:30:54.018Z,17.94
2019-02-19T05:31:54.004Z,17.84
2019-02-19T05:32:53.995Z,17.84
2019-02-19T05:33:53.995Z,17.78
2019-02-19T05:34:53.972Z,17.83
2019-02-19T05:35:53.962Z,17.84
2019-02-19T05:36:53.953Z,17.84
2019-02-19T05:37:53.941Z,17.87
2019-02-19T05:38:53.930Z,17.77
2019-02-19T05:39:53.918Z,17.87
2019-02-19T05:40:53.909Z,17.86
2019-02-19T05:41:53.898Z,17.83
2019-02-19T05:42:53.882Z,17.81
2019-02-19T05:43:53.868Z,17.78
2019-02-19T05:44:53.861Z,17.77
2019-02-19T05:45:53.849Z,17.75
2019-02-19T05:46:53.841Z,17.72
2019-02-19T05:47:53.828Z,17.80
2019-02-19T05:48:53.821Z,17.77
2019-02-19T05:49:53.806Z,17.78
2019-02-19T05:50:53.796Z,17.73
2019-02-19T05:51:53.789Z,17.70
2019-02-19T05:52:53.772Z,17.68
2019-02-19T05:53:53.764Z,17.61
2019-02-19T05:54:53.770Z,17.62
2019-02-19T05:55:53.743Z,17.55
2019-02-19T05:56:53.747Z,17.55
2019-02-19T05:57:53.719Z,17.54
2019-02-19T05:58:53.709Z,17.51
2019-02-19T05:59:53.703Z,17.53
2019-02-19T06:00:53.690Z,17.57
2019-02-19T06:01:53.680Z,17.51
2019-02-19T06:02:53.688Z,17.48
2019-02-19T06:03:53.662Z,17.57
2019-02-19T06:04:53.650Z,17.51
2019-02-19T06:05:53.638Z,17.46
2019-02-19T06:06:53.637Z,17.41
2019-02-19T06:07:53.615Z,17.48
2019-02-19T06:08:53.710Z,17.46
2019-02-19T06:09:53.595Z,17.48
2019-02-19T06:10:53.595Z,17.46
2019-02-19T06:11:53.577Z,17.47
2019-02-19T06:12:53.563Z,17.51
2019-02-19T06:13:53.553Z,17.35
2019-02-19T06:14:53.540Z,17.44
2019-02-19T06:15:53.532Z,17.41
2019-02-19T06:16:58.439Z,17.46
2019-02-19T06:17:53.508Z,17.35
2019-02-19T06:18:53.505Z,17.51
2019-02-19T06:19:53.489Z,17.47
2019-02-19T06:20:53.478Z,17.47
2019-02-19T06:21:53.465Z,17.43
2019-02-19T06:22:53.457Z,17.40
2019-02-19T06:23:53.446Z,17.44
2019-02-19T06:24:53.438Z,17.51
2019-02-19T06:25:53.427Z,17.47
2019-02-19T06:26:53.414Z,17.48
2019-02-19T06:27:53.403Z,17.43
2019-02-19T06:28:53.394Z,17.43
2019-02-19T06:29:53.386Z,17.41
2019-02-19T06:30:53.370Z,17.47
2019-02-19T06:31:53.363Z,17.51
2019-02-19T06:32:53.352Z,17.47
2019-02-19T06:33:53.342Z,17.51
2019-02-19T06:34:53.329Z,17.48
2019-02-19T06:35:53.321Z,17.50
2019-02-19T06:36:53.313Z,17.51
2019-02-19T06:37:53.307Z,17.50
2019-02-19T06:38:53.289Z,17.48
2019-02-19T06:39:53.275Z,17.61
2019-02-19T06:40:53.270Z,17.62
2019-02-19T06:41:53.257Z,17.62
2019-02-19T06:42:53.248Z,17.59
2019-02-19T06:43:53.238Z,17.61
2019-02-19T06:44:53.226Z,17.59
2019-02-19T06:45:53.222Z,17.59
2019-02-19T06:46:53.207Z,17.63
2019-02-19T06:47:53.194Z,17.54
2019-02-19T06:48:53.183Z,17.57
2019-02-19T06:49:53.175Z,17.57
2019-02-19T06:50:53.162Z,17.50
2019-02-19T06:51:53.159Z,17.51
2019-02-19T06:52:53.150Z,17.50
2019-02-19T06:53:53.131Z,17.59
2019-02-19T06:54:53.118Z,17.57
2019-02-19T06:55:53.109Z,17.63
2019-02-19T06:56:53.111Z,17.68
2019-02-19T06:57:53.087Z,17.73
2019-02-19T06:58:53.081Z,17.86
2019-02-19T06:59:53.070Z,17.87
2019-02-19T07:00:53.058Z,17.87
2019-02-19T07:01:53.047Z,17.84
2019-02-19T07:02:53.035Z,17.87
2019-02-19T07:03:53.024Z,17.86
2019-02-19T07:04:53.019Z,17.88
2019-02-19T07:05:53.004Z,17.84
2019-02-19T07:06:52.996Z,17.86
2019-02-19T07:07:52.989Z,17.83
2019-02-19T07:08:53.075Z,17.86
2019-02-19T07:09:53.064Z,17.91
2019-02-19T07:10:52.951Z,17.84
2019-02-19T07:11:52.941Z,17.81
2019-02-19T07:12:52.933Z,17.77
2019-02-19T07:13:52.923Z,17.80
2019-02-19T07:14:52.908Z,17.46
2019-02-19T07:15:52.902Z,17.10
2019-02-19T07:16:52.887Z,16.62
2019-02-19T07:17:52.877Z,16.21
2019-02-19T07:18:52.867Z,15.84
2019-02-19T07:19:52.855Z,15.82
2019-02-19T07:20:52.846Z,16.15
2019-02-19T07:21:52.847Z,16.26
2019-02-19T07:22:52.822Z,16.37
2019-02-19T07:23:52.812Z,16.52
2019-02-19T07:24:52.801Z,16.84
2019-02-19T07:25:52.795Z,16.96
2019-02-19T07:26:52.781Z,16.99
2019-02-19T07:27:52.771Z,16.98
2019-02-19T07:28:52.767Z,16.84
2019-02-19T07:29:52.751Z,16.80
2019-02-19T07:30:52.741Z,16.85
2019-02-19T07:31:52.731Z,16.84
2019-02-19T07:32:52.722Z,16.37
2019-02-19T07:33:52.708Z,15.97
2019-02-19T07:34:52.699Z,15.94
2019-02-19T07:35:52.689Z,15.96
2019-02-19T07:36:52.677Z,16.25
2019-02-19T07:37:52.669Z,16.59
2019-02-19T07:38:52.655Z,16.95
2019-02-19T07:39:52.645Z,17.10
2019-02-19T07:40:52.638Z,17.15
2019-02-19T07:41:52.624Z,16.85
2019-02-19T07:42:52.613Z,16.92
2019-02-19T07:43:54.193Z,16.82
2019-02-19T07:44:52.595Z,16.61
2019-02-19T07:45:52.583Z,16.25
2019-02-19T07:46:52.569Z,15.99
2019-02-19T07:47:52.560Z,15.57
2019-02-19T07:48:52.549Z,15.34
2019-02-19T07:49:52.542Z,14.74
2019-02-19T07:50:52.527Z,14.29
2019-02-19T07:51:52.520Z,14.24
2019-02-19T07:52:52.512Z,14.87
2019-02-19T07:53:52.501Z,15.48
2019-02-19T07:54:52.489Z,15.51
2019-02-19T07:55:52.478Z,15.02
2019-02-19T07:56:52.473Z,14.74
2019-02-19T07:57:52.466Z,14.68
2019-02-19T07:58:52.447Z,14.44
2019-02-19T07:59:52.436Z,14.10
2019-02-19T08:00:52.425Z,14.42
2019-02-19T08:01:52.414Z,14.89
2019-02-19T08:02:52.407Z,15.57
2019-02-19T08:03:52.391Z,15.97
2019-02-19T08:04:52.380Z,15.63
2019-02-19T08:05:52.369Z,15.11
2019-02-19T08:06:52.363Z,14.68
2019-02-19T08:07:52.347Z,14.01
2019-02-19T08:08:52.442Z,14.03
2019-02-19T08:09:52.431Z,14.13
2019-02-19T08:10:52.318Z,14.13
2019-02-19T08:11:52.308Z,14.62
2019-02-19T08:12:52.303Z,15.26
2019-02-19T08:13:52.288Z,15.34
2019-02-19T08:14:52.275Z,15.19
2019-02-19T08:15:52.266Z,14.53
2019-02-19T08:16:52.250Z,14.01
2019-02-19T08:17:52.243Z,13.75
2019-02-19T08:18:52.232Z,13.75
2019-02-19T08:19:52.222Z,13.79
2019-02-19T08:20:52.220Z,13.79
2019-02-19T08:21:52.207Z,14.00
2019-02-19T08:22:52.190Z,14.53
2019-02-19T08:23:52.179Z,14.67
2019-02-19T08:24:52.168Z,14.83
2019-02-19T08:25:52.160Z,14.85
2019-02-19T08:26:52.160Z,15.12
2019-02-19T08:27:52.136Z,15.26
2019-02-19T08:28:52.131Z,15.04
2019-02-19T08:29:52.122Z,14.75
2019-02-19T08:30:52.112Z,14.46
2019-02-19T08:31:52.098Z,14.14
2019-02-19T08:32:52.086Z,14.27
2019-02-19T08:33:52.077Z,14.12
2019-02-19T08:34:52.067Z,13.98
2019-02-19T08:35:52.154Z,14.43
2019-02-19T08:36:52.045Z,15.44
2019-02-19T08:37:52.035Z,15.88
2019-02-19T08:38:52.124Z,15.64
2019-02-19T08:39:52.015Z,15.23
2019-02-19T08:40:52.002Z,14.93
2019-02-19T08:41:51.995Z,14.60
2019-02-19T08:42:51.979Z,14.14
2019-02-19T08:43:51.978Z,13.82
2019-02-19T08:44:51.961Z,13.78
2019-02-19T08:45:51.951Z,14.29
2019-02-19T08:46:51.937Z,15.12
2019-02-19T08:47:51.927Z,15.40
2019-02-19T08:48:51.918Z,15.40
2019-02-19T08:49:51.907Z,15.12
2019-02-19T08:50:51.897Z,15.26
2019-02-19T08:51:56.122Z,15.40
2019-02-19T08:52:51.878Z,15.84
2019-02-19T08:53:51.863Z,15.79
2019-02-19T08:54:51.853Z,15.75
2019-02-19T08:55:51.843Z,15.92
2019-02-19T08:56:51.832Z,15.67
2019-02-19T08:57:51.823Z,15.12
2019-02-19T08:58:51.812Z,14.85
2019-02-19T08:59:51.800Z,15.05
2019-02-19T09:00:51.789Z,15.18
2019-02-19T09:01:51.782Z,15.34
2019-02-19T09:02:51.772Z,15.85
2019-02-19T09:03:51.755Z,16.52
2019-02-19T09:04:51.753Z,16.52
2019-02-19T09:05:51.738Z,16.64
2019-02-19T09:06:51.731Z,16.12
2019-02-19T09:07:51.714Z,15.64
2019-02-19T09:08:51.759Z,15.34
2019-02-19T09:09:52.099Z,14.87
2019-02-19T09:10:51.687Z,14.75
2019-02-19T09:11:51.673Z,14.67
2019-02-19T09:12:51.665Z,14.92
2019-02-19T09:13:51.652Z,15.22
2019-02-19T09:14:51.643Z,15.38
2019-02-19T09:15:51.634Z,15.56
2019-02-19T09:16:51.621Z,15.37
2019-02-19T09:17:52.413Z,15.38
2019-02-19T09:18:51.599Z,14.93
2019-02-19T09:19:51.590Z,14.24
2019-02-19T09:20:51.580Z,13.87
2019-02-19T09:21:51.568Z,13.60
2019-02-19T09:22:51.559Z,13.51
2019-02-19T09:23:51.548Z,13.45
2019-02-19T09:24:51.543Z,13.25
2019-02-19T09:25:51.524Z,12.75
2019-02-19T09:26:51.515Z,12.77
2019-02-19T09:27:51.505Z,12.51
2019-02-19T09:28:51.492Z,12.40
2019-02-19T09:29:51.487Z,12.43
2019-02-19T09:30:51.470Z,12.51
2019-02-19T09:31:51.458Z,12.88
2019-02-19T09:32:51.446Z,13.51
2019-02-19T09:33:51.435Z,13.90
2019-02-19T09:34:52.700Z,14.00
2019-02-19T09:35:51.415Z,14.06
2019-02-19T09:36:51.408Z,13.94
2019-02-19T09:37:51.394Z,13.94
2019-02-19T09:38:51.385Z,14.00
2019-02-19T09:39:51.380Z,14.03
2019-02-19T09:40:51.366Z,14.14
2019-02-19T09:41:51.349Z,14.56
2019-02-19T09:42:51.339Z,14.89
2019-02-19T09:43:51.330Z,15.16
2019-02-19T09:44:51.319Z,15.04
2019-02-19T09:45:51.309Z,15.11
2019-02-19T09:46:51.302Z,14.98
2019-02-19T09:48:00.808Z,15.04
2019-02-19T09:48:52.377Z,15.20
2019-02-19T09:49:51.273Z,15.41
2019-02-19T09:50:51.252Z,15.74
2019-02-19T09:51:51.240Z,15.89
2019-02-19T09:52:59.489Z,15.97
2019-02-19T09:53:52.333Z,15.63
2019-02-19T09:54:51.211Z,15.37
2019-02-19T09:55:51.201Z,15.23
2019-02-19T09:56:51.187Z,14.98
2019-02-19T09:57:51.181Z,14.42
2019-02-19T09:58:51.168Z,13.70
2019-02-19T09:59:51.154Z,13.35
2019-02-19T10:00:51.148Z,13.24
2019-02-19T10:01:51.131Z,13.58
2019-02-19T10:02:51.135Z,13.98
2019-02-19T10:03:51.112Z,14.19
2019-02-19T10:04:51.103Z,14.14
2019-02-19T10:05:51.091Z,14.27
2019-02-19T10:06:51.080Z,14.49
2019-02-19T10:07:51.078Z,14.49
2019-02-19T10:08:51.062Z,14.27
2019-02-19T10:09:51.049Z,13.94
2019-02-19T10:10:51.135Z,13.78
2019-02-19T10:11:51.028Z,13.82
2019-02-19T10:12:51.016Z,13.73
2019-02-19T10:13:51.005Z,13.68
2019-02-19T10:14:50.992Z,13.72
2019-02-19T10:15:50.983Z,13.76
2019-02-19T10:16:50.978Z,13.78
2019-02-19T10:17:50.960Z,13.97
2019-02-19T10:18:50.952Z,14.43
2019-02-19T10:19:50.946Z,14.13
2019-02-19T10:20:51.875Z,13.86
2019-02-19T10:21:50.924Z,13.61
2019-02-19T10:22:50.906Z,13.51
2019-02-19T10:23:50.893Z,13.60
2019-02-19T10:24:52.396Z,13.46
2019-02-19T10:25:50.879Z,13.27
2019-02-19T10:26:50.863Z,13.07
2019-02-19T10:27:50.857Z,13.04
2019-02-19T10:28:50.846Z,12.95
2019-02-19T10:29:50.844Z,12.82
2019-02-19T10:30:50.826Z,13.04
2019-02-19T10:31:50.815Z,13.06
2019-02-19T10:32:50.800Z,12.89
2019-02-19T10:33:50.792Z,12.74
2019-02-19T10:34:50.777Z,12.67
2019-02-19T10:35:50.772Z,12.69
2019-02-19T10:36:50.762Z,12.87
2019-02-19T10:37:51.802Z,13.18
2019-02-19T10:38:50.737Z,13.35
2019-02-19T10:39:50.724Z,13.11
2019-02-19T10:40:50.712Z,12.97
2019-02-19T10:41:50.703Z,12.96
2019-02-19T10:42:50.694Z,12.87
2019-02-19T10:43:50.684Z,13.21
2019-02-19T10:44:50.672Z,13.35
2019-02-19T10:45:50.662Z,13.64
2019-02-19T10:46:50.652Z,13.98
2019-02-19T10:47:50.637Z,14.16
2019-02-19T10:48:50.631Z,14.00
2019-02-19T10:49:50.618Z,13.97
2019-02-19T10:50:50.606Z,14.20
2019-02-19T10:51:50.598Z,14.14
2019-02-19T10:52:51.746Z,13.95
2019-02-19T10:53:50.570Z,13.78
2019-02-19T10:54:51.208Z,13.68
2019-02-19T10:55:50.552Z,13.48
2019-02-19T10:56:50.541Z,13.60
2019-02-19T10:57:50.538Z,13.98
2019-02-19T10:58:50.523Z,14.28
2019-02-19T10:59:50.509Z,14.61
2019-02-19T11:00:50.500Z,14.67
2019-02-19T11:01:50.493Z,14.42
2019-02-19T11:02:50.490Z,14.09
2019-02-19T11:03:50.478Z,13.60
2019-02-19T11:04:50.468Z,13.21
2019-02-19T11:05:50.447Z,12.82
2019-02-19T11:06:50.447Z,12.66
2019-02-19T11:07:50.431Z,12.43
2019-02-19T11:08:50.417Z,12.41
2019-02-19T11:09:50.408Z,12.33
2019-02-19T11:10:50.928Z,12.45
2019-02-19T11:11:50.489Z,12.69
2019-02-19T11:12:50.381Z,13.07
2019-02-19T11:13:50.362Z,13.48
2019-02-19T11:14:50.352Z,13.73
2019-02-19T11:15:50.340Z,13.70
2019-02-19T11:16:50.339Z,13.32
2019-02-19T11:17:50.323Z,13.36
2019-02-19T11:18:50.311Z,13.46
2019-02-19T11:19:50.311Z,13.30
2019-02-19T11:20:50.286Z,13.37
2019-02-19T11:21:50.280Z,13.33
2019-02-19T11:22:50.267Z,13.30
2019-02-19T11:23:50.253Z,13.09
2019-02-19T11:24:50.243Z,13.04
2019-02-19T11:25:50.236Z,13.30
2019-02-19T11:26:50.226Z,13.48
2019-02-19T11:27:50.211Z,13.70
2019-02-19T11:28:50.208Z,13.98
2019-02-19T11:29:50.198Z,14.03
2019-02-19T11:30:50.182Z,13.70
2019-02-19T11:31:50.170Z,13.21
2019-02-19T11:32:50.159Z,12.85
2019-02-19T11:33:50.143Z,12.58
2019-02-19T11:34:50.144Z,12.44
2019-02-19T11:35:50.126Z,12.37
2019-02-19T11:36:50.124Z,12.15
2019-02-19T11:37:50.105Z,12.07
2019-02-19T11:38:50.092Z,12.00
2019-02-19T11:39:50.084Z,12.01
2019-02-19T11:40:50.071Z,12.10
2019-02-19T11:41:50.062Z,12.28
2019-02-19T11:42:50.050Z,12.51
2019-02-19T11:43:50.048Z,12.69
2019-02-19T11:44:50.029Z,12.84
2019-02-19T11:45:50.025Z,12.96
2019-02-19T11:46:50.004Z,13.04
2019-02-19T11:47:49.996Z,13.27
2019-02-19T11:48:49.984Z,13.20
2019-02-19T11:49:49.972Z,12.95
2019-02-19T11:50:49.964Z,12.77
2019-02-19T11:51:49.951Z,12.89
2019-02-19T11:52:49.944Z,12.66
2019-02-19T11:53:49.933Z,12.59
2019-02-19T11:54:49.917Z,13.09
2019-02-19T11:55:49.905Z,13.39
2019-02-19T11:56:49.900Z,13.76
2019-02-19T11:57:49.887Z,13.73
2019-02-19T11:58:49.887Z,13.70
2019-02-19T11:59:49.861Z,13.91
2019-02-19T12:00:49.852Z,14.13
2019-02-19T12:01:49.846Z,14.47
2019-02-19T12:02:49.831Z,14.52
2019-02-19T12:03:49.831Z,14.43
2019-02-19T12:04:49.810Z,14.61
2019-02-19T12:05:49.795Z,14.67
2019-02-19T12:06:49.787Z,14.77
2019-02-19T12:07:49.778Z,14.46
2019-02-19T12:08:49.763Z,13.94
2019-02-19T12:09:49.755Z,13.57
2019-02-19T12:10:49.741Z,13.51
2019-02-19T12:11:49.828Z,13.53
2019-02-19T12:12:49.719Z,13.35
2019-02-19T12:13:49.712Z,13.04
2019-02-19T12:14:49.702Z,13.06
2019-02-19T12:15:49.686Z,13.15
2019-02-19T12:16:49.676Z,13.07
2019-02-19T12:17:49.682Z,12.95
2019-02-19T12:18:49.654Z,12.75
2019-02-19T12:19:49.654Z,12.45
2019-02-19T12:20:49.635Z,12.08
2019-02-19T12:21:49.620Z,11.77
2019-02-19T12:22:49.616Z,11.56
2019-02-19T12:23:49.596Z,11.53
2019-02-19T12:24:49.589Z,11.46
2019-02-19T12:25:49.578Z,11.49
2019-02-19T12:26:49.568Z,11.78
2019-02-19T12:27:49.558Z,12.05
2019-02-19T12:28:49.545Z,12.08
2019-02-19T12:29:49.533Z,11.96
2019-02-19T12:30:49.524Z,11.89
2019-02-19T12:31:49.516Z,11.78
2019-02-19T12:32:49.502Z,11.62
2019-02-19T12:33:49.487Z,11.49
2019-02-19T12:34:49.481Z,11.50
2019-02-19T12:35:49.469Z,11.46
2019-02-19T12:36:49.460Z,11.72
2019-02-19T12:37:49.448Z,11.78
2019-02-19T12:38:49.434Z,11.77
2019-02-19T12:39:49.422Z,11.83
2019-02-19T12:40:49.415Z,11.82
2019-02-19T12:41:49.402Z,11.85
2019-02-19T12:42:49.398Z,12.03
2019-02-19T12:43:51.016Z,12.07
2019-02-19T12:44:49.368Z,12.10
2019-02-19T12:45:49.367Z,12.18
2019-02-19T12:46:49.353Z,12.36
2019-02-19T12:47:49.335Z,12.38
2019-02-19T12:48:54.720Z,12.50
2019-02-19T12:49:49.315Z,12.41
2019-02-19T12:50:49.308Z,12.38
2019-02-19T12:51:49.291Z,12.40
2019-02-19T12:52:49.281Z,12.48
2019-02-19T12:53:49.277Z,12.84